createdAt,value
2023-03-25T00:00:39.931Z,10.30
2023-03-25T00:05:43.756Z,10.20
2023-03-25T00:10:47.660Z,10.30
2023-03-25T00:15:53.798Z,10.30
2023-03-25T00:20:58.065Z,10.40
2023-03-25T00:26:01.918Z,10.40
2023-03-25T00:31:09.634Z,10.40
2023-03-25T00:36:15.311Z,10.40
2023-03-25T00:41:23.024Z,10.50
2023-03-25T00:46:29.984Z,10.50
2023-03-25T00:51:33.874Z,10.60
2023-03-25T00:56:39.449Z,10.60
2023-03-25T01:01:46.230Z,10.50
2023-03-25T01:06:51.925Z,10.60
2023-03-25T01:11:55.424Z,10.60
2023-03-25T01:17:00.756Z,10.70
2023-03-25T01:22:06.664Z,10.80
2023-03-25T01:27:10.468Z,10.80
2023-03-25T01:32:15.516Z,10.90
2023-03-25T01:37:19.653Z,10.90
2023-03-25T01:42:23.028Z,10.90
2023-03-25T01:47:28.356Z,10.90
2023-03-25T01:52:32.674Z,10.90
2023-03-25T01:57:37.598Z,10.80
2023-03-25T02:02:42.784Z,10.80
2023-03-25T02:07:48.722Z,10.80
2023-03-25T02:12:52.144Z,10.80
2023-03-25T02:18:09.329Z,10.90
2023-03-25T02:23:42.291Z,10.90
2023-03-25T02:28:53.030Z,10.90
2023-03-25T02:34:25.085Z,10.80
2023-03-25T02:39:36.514Z,10.90
2023-03-25T02:44:44.660Z,10.80
2023-03-25T02:49:52.557Z,10.70
2023-03-25T02:55:04.332Z,10.50
2023-03-25T03:00:15.797Z,10.40
2023-03-25T03:05:27.331Z,10.50
2023-03-25T03:10:39.725Z,10.40
2023-03-25T03:15:51.372Z,10.50
2023-03-25T03:21:01.694Z,10.60
2023-03-25T03:26:14.178Z,10.50
2023-03-25T03:31:47.637Z,10.60
2023-03-25T03:36:51.267Z,10.60
2023-03-25T03:42:00.651Z,10.70
2023-03-25T03:47:10.955Z,10.70
2023-03-25T03:52:18.578Z,10.70
2023-03-25T03:57:27.829Z,10.80
2023-03-25T04:02:39.658Z,10.80
2023-03-25T04:07:46.977Z,10.90
2023-03-25T04:12:53.805Z,10.90
2023-03-25T04:17:57.676Z,10.90
2023-03-25T04:23:01.052Z,10.90
2023-03-25T04:28:07.205Z,10.90
2023-03-25T04:33:10.918Z,10.90
2023-03-25T04:38:18.169Z,10.90
2023-03-25T04:43:22.839Z,10.90
2023-03-25T04:48:30.558Z,10.80
2023-03-25T04:53:33.976Z,10.80
2023-03-25T04:58:38.676Z,10.70
2023-03-25T05:03:42.335Z,10.70
2023-03-25T05:08:45.921Z,10.70
2023-03-25T05:13:50.564Z,10.70
2023-03-25T05:18:53.953Z,10.60
2023-03-25T05:23:58.155Z,10.50
2023-03-25T05:29:03.190Z,10.50
2023-03-25T05:34:06.766Z,10.50
2023-03-25T05:39:10.943Z,10.30
2023-03-25T05:44:18.942Z,10.30
2023-03-25T05:49:22.469Z,10.30
2023-03-25T05:54:25.801Z,10.20
2023-03-25T05:59:30.437Z,10.20
2023-03-25T06:04:37.835Z,10.20
2023-03-25T06:09:46.302Z,10.20
2023-03-25T06:14:54.084Z,10.50
2023-03-25T06:19:57.555Z,10.90
2023-03-25T06:25:03.678Z,11.20
2023-03-25T06:30:11.506Z,11.60
2023-03-25T06:35:18.305Z,11.80
2023-03-25T06:40:24.292Z,12.00
2023-03-25T06:45:29.304Z,12.10
2023-03-25T06:50:43.877Z,12.00
2023-03-25T06:55:47.140Z,11.90
2023-03-25T07:00:56.647Z,11.90
2023-03-25T07:06:00.356Z,11.90
2023-03-25T07:11:04.726Z,12.00
2023-03-25T07:16:11.491Z,12.00
2023-03-25T07:21:18.841Z,12.10
2023-03-25T07:26:22.134Z,12.20
2023-03-25T07:31:26.891Z,12.00
2023-03-25T07:36:30.318Z,11.50
2023-03-25T07:41:33.542Z,11.30
2023-03-25T07:46:50.744Z,11.00
2023-03-25T07:51:54.063Z,11.00
2023-03-25T07:56:57.553Z,11.10
2023-03-25T08:02:02.758Z,11.20
2023-03-25T08:07:06.907Z,11.40
2023-03-25T08:12:10.554Z,11.60
2023-03-25T08:17:15.923Z,11.70
2023-03-25T08:22:19.138Z,12.00
2023-03-25T08:27:22.557Z,12.40
2023-03-25T08:32:28.192Z,12.80
2023-03-25T08:37:35.118Z,12.60
2023-03-25T08:42:38.919Z,12.50
2023-03-25T08:47:45.770Z,12.50
2023-03-25T08:52:49.140Z,12.20
2023-03-25T08:57:52.966Z,11.90
2023-03-25T09:02:59.154Z,11.50
2023-03-25T09:08:04.114Z,11.40
2023-03-25T09:13:07.482Z,11.60
2023-03-25T09:18:12.509Z,12.20
2023-03-25T09:23:16.417Z,12.40
2023-03-25T09:28:19.786Z,12.80
2023-03-25T09:33:24.375Z,13.80
2023-03-25T09:38:27.643Z,13.80
2023-03-25T09:43:46.162Z,13.40
2023-03-25T09:48:52.435Z,13.10
2023-03-25T09:54:00.121Z,12.80
2023-03-25T09:59:07.521Z,12.60
2023-03-25T10:04:29.417Z,13.00
2023-03-25T10:09:42.447Z,13.20
2023-03-25T10:15:00.615Z,13.30
2023-03-25T10:20:12.943Z,13.60
2023-03-25T10:25:21.879Z,14.30
2023-03-25T10:30:28.679Z,14.80
2023-03-25T10:35:39.312Z,14.30
2023-03-25T10:40:49.950Z,14.10
2023-03-25T10:45:57.774Z,13.90
2023-03-25T10:51:06.417Z,13.60
2023-03-25T10:56:13.907Z,13.90
2023-03-25T11:01:19.747Z,14.30
2023-03-25T11:06:29.743Z,14.40
2023-03-25T11:11:34.256Z,14.30
2023-03-25T11:16:43.870Z,14.10
2023-03-25T11:21:54.359Z,13.80
2023-03-25T11:26:58.090Z,13.90
2023-03-25T11:32:08.472Z,14.10
2023-03-25T11:37:19.815Z,14.00
2023-03-25T11:42:33.028Z,14.00
2023-03-25T11:47:40.459Z,14.40
2023-03-25T11:52:46.743Z,14.70
2023-03-25T11:57:51.744Z,15.30
2023-03-25T12:03:02.034Z,15.80
2023-03-25T12:08:15.358Z,16.10
2023-03-25T12:13:31.165Z,15.90
2023-03-25T12:18:49.381Z,15.40
2023-03-25T12:24:07.084Z,14.30
2023-03-25T12:29:31.707Z,13.70
2023-03-25T12:34:47.156Z,13.90
2023-03-25T12:40:12.353Z,14.30
2023-03-25T12:45:34.497Z,15.00
2023-03-25T12:50:46.007Z,15.40
2023-03-25T12:56:00.789Z,15.60
2023-03-25T13:01:13.527Z,15.70
2023-03-25T13:06:24.324Z,15.90
2023-03-25T13:11:36.275Z,14.80
2023-03-25T13:16:41.708Z,12.50
2023-03-25T13:21:50.845Z,10.80
2023-03-25T13:26:56.634Z,10.00
2023-03-25T13:32:03.576Z,9.30
2023-03-25T13:37:13.607Z,9.00
2023-03-25T13:42:23.723Z,9.00
2023-03-25T13:47:32.152Z,9.20
2023-03-25T13:52:40.479Z,9.70
2023-03-25T13:58:25.435Z,10.10
2023-03-25T14:03:58.502Z,10.20
2023-03-25T14:09:34.162Z,10.30
2023-03-25T14:14:42.115Z,10.60
2023-03-25T14:19:52.876Z,10.80
2023-03-25T14:24:57.421Z,11.00
2023-03-25T14:30:05.900Z,11.20
2023-03-25T14:35:49.678Z,11.30
2023-03-25T14:41:03.097Z,11.50
2023-03-25T14:46:18.295Z,11.70
2023-03-25T14:51:46.660Z,11.70
2023-03-25T14:56:55.832Z,11.90
2023-03-25T15:02:10.464Z,11.90
2023-03-25T15:07:19.975Z,11.80
2023-03-25T15:12:27.262Z,11.80
2023-03-25T15:17:49.293Z,11.80
2023-03-25T15:23:30.242Z,11.60
2023-03-25T15:29:12.426Z,11.50
2023-03-25T15:34:41.330Z,11.50
2023-03-25T15:40:06.500Z,11.60
2023-03-25T15:45:55.252Z,11.70
2023-03-25T15:51:15.942Z,11.90
2023-03-25T15:56:23.172Z,12.10
2023-03-25T16:01:31.641Z,12.10
2023-03-25T16:06:42.884Z,12.10
2023-03-25T16:11:47.192Z,12.20
2023-03-25T16:16:54.168Z,12.30
2023-03-25T16:22:03.610Z,12.20
2023-03-25T16:27:19.989Z,12.20
2023-03-25T16:32:25.683Z,12.10
2023-03-25T16:37:33.938Z,12.10
2023-03-25T16:42:37.654Z,12.30
2023-03-25T16:47:41.504Z,12.40
2023-03-25T16:52:47.955Z,12.30
2023-03-25T16:57:51.944Z,12.10
2023-03-25T17:02:57.340Z,12.10
2023-03-25T17:08:05.266Z,12.00
2023-03-25T17:13:11.222Z,11.90
2023-03-25T17:18:17.615Z,11.80
2023-03-25T17:23:34.097Z,11.70
2023-03-25T17:28:40.311Z,11.50
2023-03-25T17:33:50.607Z,11.30
2023-03-25T17:38:56.003Z,11.10
2023-03-25T17:43:59.495Z,11.00
2023-03-25T17:49:02.772Z,10.80
2023-03-25T17:54:07.818Z,10.60
2023-03-25T17:59:16.769Z,10.40
2023-03-25T18:04:22.648Z,10.40
2023-03-25T18:09:28.428Z,10.40
2023-03-25T18:14:32.139Z,10.50
2023-03-25T18:19:35.794Z,10.60
2023-03-25T18:24:40.822Z,10.70
2023-03-25T18:29:44.383Z,10.70
2023-03-25T18:34:47.825Z,10.60
2023-03-25T18:39:52.930Z,10.20
2023-03-25T18:44:57.040Z,9.90
2023-03-25T18:50:00.943Z,9.70
2023-03-25T18:55:06.634Z,9.60
2023-03-25T19:00:21.681Z,9.60
2023-03-25T19:05:26.299Z,9.50
2023-03-25T19:10:34.302Z,9.50
2023-03-25T19:15:38.022Z,9.70
2023-03-25T19:20:41.626Z,9.70
2023-03-25T19:25:47.594Z,9.60
2023-03-25T19:30:55.063Z,9.50
2023-03-25T19:36:00.166Z,9.50
2023-03-25T19:41:07.568Z,9.60
2023-03-25T19:46:11.606Z,9.70
2023-03-25T19:51:14.973Z,9.80
2023-03-25T19:56:19.583Z,9.80
2023-03-25T20:01:23.185Z,9.60
2023-03-25T20:06:26.453Z,9.50
2023-03-25T20:11:31.121Z,9.40
2023-03-25T20:16:34.990Z,9.30
2023-03-25T20:21:38.404Z,9.10
2023-03-25T20:26:43.056Z,9.00
2023-03-25T20:31:46.578Z,9.10
2023-03-25T20:36:49.962Z,9.00
2023-03-25T20:41:54.821Z,9.10
2023-03-25T20:46:58.857Z,9.20
2023-03-25T20:52:02.657Z,9.30
2023-03-25T20:57:07.758Z,9.40
2023-03-25T21:02:12.870Z,9.40
2023-03-25T21:07:19.747Z,9.60
2023-03-25T21:12:32.866Z,9.60
2023-03-25T21:17:44.818Z,9.70
2023-03-25T21:22:48.133Z,9.80
2023-03-25T21:27:53.108Z,9.80
2023-03-25T21:32:57.081Z,9.80
2023-03-25T21:38:01.068Z,9.80
2023-03-25T21:43:06.184Z,9.90
2023-03-25T21:48:10.428Z,9.80
2023-03-25T21:53:18.964Z,9.80
2023-03-25T21:58:24.076Z,9.70
2023-03-25T22:03:30.441Z,9.60
2023-03-25T22:08:34.236Z,9.50
2023-03-25T22:13:39.435Z,9.50
2023-03-25T22:18:43.392Z,9.50
2023-03-25T22:23:48.374Z,9.40
2023-03-25T22:28:57.025Z,9.20
2023-03-25T22:34:03.746Z,9.20
2023-03-25T22:39:07.675Z,9.20
2023-03-25T22:44:13.713Z,9.10
2023-03-25T22:49:18.327Z,9.10
2023-03-25T22:54:21.666Z,9.00
2023-03-25T22:59:26.358Z,9.10
2023-03-25T23:04:29.609Z,9.10
2023-03-25T23:09:42.687Z,9.10
2023-03-25T23:14:52.286Z,9.00
2023-03-25T23:19:55.823Z,8.90
2023-03-25T23:24:59.996Z,8.90
2023-03-25T23:30:06.531Z,8.90
2023-03-25T23:35:10.996Z,8.80
2023-03-25T23:40:14.363Z,8.80
2023-03-25T23:45:19.957Z,8.90
2023-03-25T23:50:23.234Z,9.00
2023-03-25T23:55:27.808Z,9.00
